| time (UTC) | temp F | wind direction | speed knots | gust knots | rain 1hr in | rain 24hr in | rain mn in | humidity % | barometer mb |
| 20260503223004 | 80 | 332 | 2.6 | 7.0 | 0.00 | 0.00 | 0.00 | 33 | 1029.0 |
| 20260503221504 | 79 | 331 | 1.7 | 6.1 | 0.00 | 0.00 | 0.00 | 38 | 1029.2 |
| 20260503214503 | 79 | 32 | 1.7 | 6.1 | 0.00 | 0.00 | 0.00 | 36 | 1029.6 |
| 20260503213003 | 79 | 63 | 0.9 | 2.6 | 0.00 | 0.00 | 0.00 | 36 | 1029.8 |
| 20260503211505 | 79 | 48 | 0.9 | 4.3 | 0.00 | 0.00 | 0.00 | 36 | 1029.9 |
| 20260503210005 | 78 | 34 | 0.9 | 4.3 | 0.00 | 0.00 | 0.00 | 38 | 1030.1 |
| 20260503204504 | 78 | 19 | 1.7 | 4.3 | 0.00 | 0.00 | 0.00 | 41 | 1030.2 |
| 20260503203004 | 76 | 53 | 1.7 | 6.1 | 0.00 | 0.00 | 0.00 | 42 | 1030.2 |
| 20260503201505 | 76 | 46 | 0.9 | 2.6 | 0.00 | 0.00 | 0.00 | 41 | 1030.3 |
| 20260503200003 | 76 | 61 | 0.9 | 2.6 | 0.00 | 0.00 | 0.00 | 43 | 1030.5 |
| 20260503194505 | 74 | 52 | 0.9 | 3.5 | 0.00 | 0.00 | 0.00 | 43 | 1030.8 |
| 20260503193003 | 77 | 63 | 0.9 | 4.3 | 0.00 | 0.00 | 0.00 | 42 | 1030.9 |
| 20260503191504 | 76 | 4 | 0.9 | 3.5 | 0.00 | 0.00 | 0.00 | 37 | 1031.1 |
| 20260503190003 | 76 | 49 | 1.7 | 4.3 | 0.00 | 0.00 | 0.00 | 44 | 1031.1 |
| 20260503184503 | 75 | 29 | 0.9 | 3.5 | 0.00 | 0.00 | 0.00 | 45 | 1031.3 |
| 20260503183004 | 74 | 28 | 1.7 | 5.2 | 0.00 | 0.00 | 0.00 | 45 | 1031.4 |
| 20260503180004 | 72 | 37 | 1.7 | 3.5 | 0.00 | 0.00 | 0.00 | 49 | 1031.8 |
| 20260503173004 | 71 | 339 | 1.7 | 4.3 | 0.00 | 0.00 | 0.00 | 50 | 1032.1 |
| 20260503171504 | 72 | 332 | 1.7 | 4.3 | 0.00 | 0.00 | 0.00 | 49 | 1032.1 |
| 20260503081505 | 53 | 12 | 0.9 | 1.7 | 0.00 | 0.00 | 0.00 | 79 | 1031.8 |
| 20260503071504 | 57 | 11 | 0.9 | 2.6 | 0.00 | 0.00 | 0.00 | 68 | 1031.6 |
| 20260503053005 | 60 | 25 | 1.7 | 3.5 | 0.00 | 0.00 | 0.00 | 60 | 1031.5 |
| 20260503051504 | 61 | 295 | 0.9 | 4.3 | 0.00 | 0.00 | 0.00 | 56 | 1031.5 |
| 20260503050004 | 62 | 294 | 0.9 | 4.3 | 0.00 | 0.00 | 0.00 | 58 | 1031.4 |
| 20260503044503 | 63 | 224 | 0.0 | 1.7 | 0.00 | 0.00 | 0.00 | 56 | 1031.4 |
| 20260503043003 | 65 | 304 | 0.9 | 3.5 | 0.00 | 0.00 | 0.00 | 50 | 1031.3 |
| 20260503041504 | 65 | 304 | 1.7 | 5.2 | 0.00 | 0.00 | 0.00 | 48 | 1031.1 |
| 20260503040004 | 66 | 321 | 0.9 | 2.6 | 0.00 | 0.00 | 0.00 | 49 | 1031.0 |
| 20260503034505 | 66 | 331 | 1.7 | 4.3 | 0.00 | 0.00 | 0.00 | 50 | 1030.8 |
| 20260503033003 | 67 | 312 | 0.9 | 3.5 | 0.00 | 0.00 | 0.00 | 48 | 1030.7 |
| 20260503031503 | 67 | 314 | 1.7 | 4.3 | 0.00 | 0.00 | 0.00 | 48 | 1030.6 |
| 20260503030003 | 68 | 351 | 1.7 | 4.3 | 0.00 | 0.00 | 0.00 | 48 | 1030.5 |
| 20260503024504 | 68 | 306 | 0.9 | 3.5 | 0.00 | 0.00 | 0.00 | 46 | 1030.5 |
| 20260503023005 | 69 | 351 | 1.7 | 4.3 | 0.00 | 0.00 | 0.00 | 45 | 1030.5 |
| 20260503021503 | 70 | 330 | 1.7 | 5.2 | 0.00 | 0.00 | 0.00 | 45 | 1030.6 |
| 20260503020003 | 71 | 339 | 1.7 | 6.1 | 0.00 | 0.00 | 0.00 | 43 | 1030.7 |
| 20260503014503 | 72 | 341 | 1.7 | 4.3 | 0.00 | 0.00 | 0.00 | 42 | 1030.8 |
| 20260503013004 | 73 | 321 | 0.9 | 5.2 | 0.00 | 0.00 | 0.00 | 41 | 1030.9 |
| 20260503011506 | 74 | 346 | 1.7 | 7.0 | 0.00 | 0.00 | 0.00 | 40 | 1031.1 |
| 20260503010004 | 75 | 336 | 2.6 | 5.2 | 0.00 | 0.00 | 0.00 | 38 | 1031.1 |
| 20260503004505 | 77 | 311 | 2.6 | 6.1 | 0.00 | 0.00 | 0.00 | 36 | 1031.2 |
| 20260503003003 | 76 | 330 | 1.7 | 7.0 | 0.00 | 0.00 | 0.00 | 36 | 1031.2 |
| 20260503001503 | 76 | 324 | 1.7 | 6.1 | 0.00 | 0.00 | 0.00 | 37 | 1031.3 |
| 20260503000005 | 77 | 311 | 1.7 | 4.3 | 0.00 | 0.00 | 0.00 | 35 | 1031.4 |
| 20260502233003 | 77 | 334 | 2.6 | 7.8 | 0.00 | 0.00 | 0.00 | 37 | 1031.7 |
| 20260502231503 | 76 | 339 | 1.7 | 5.2 | 0.00 | 0.00 | 0.00 | 38 | 1031.9 |
| 20260502230005 | 76 | 332 | 2.6 | 6.1 | 0.00 | 0.00 | 0.00 | 39 | 1032.1 |